createdAt,value
2023-09-06T00:02:18.659Z,15.73
2023-09-06T00:04:45.081Z,15.70
2023-09-06T00:07:11.614Z,15.68
2023-09-06T00:09:37.879Z,15.65
2023-09-06T00:12:04.163Z,15.63
2023-09-06T00:14:30.420Z,15.59
2023-09-06T00:16:56.830Z,15.58
2023-09-06T00:19:25.205Z,15.55
2023-09-06T00:21:51.770Z,15.52
2023-09-06T00:24:20.196Z,15.52
2023-09-06T00:26:46.456Z,15.52
2023-09-06T00:29:12.732Z,15.51
2023-09-06T00:31:39.063Z,15.49
2023-09-06T00:34:05.411Z,15.46
2023-09-06T00:36:33.475Z,15.43
2023-09-06T00:38:59.712Z,15.40
2023-09-06T00:41:25.997Z,15.40
2023-09-06T00:43:52.306Z,15.38
2023-09-06T00:46:18.573Z,15.35
2023-09-06T00:48:44.947Z,15.34
2023-09-06T00:51:11.193Z,15.31
2023-09-06T00:53:37.914Z,15.28
2023-09-06T00:56:04.249Z,15.25
2023-09-06T00:58:30.730Z,15.23
2023-09-06T01:00:58.190Z,15.18
2023-09-06T01:03:24.584Z,15.14
2023-09-06T01:05:51.004Z,15.14
2023-09-06T01:08:19.351Z,15.12
2023-09-06T01:10:45.716Z,15.10
2023-09-06T01:13:12.071Z,15.09
2023-09-06T01:15:38.531Z,15.08
2023-09-06T01:18:04.884Z,15.07
2023-09-06T01:20:32.016Z,15.04
2023-09-06T01:22:58.869Z,15.00
2023-09-06T01:25:25.214Z,14.97
2023-09-06T01:27:51.525Z,14.96
2023-09-06T01:30:19.095Z,14.96
2023-09-06T01:32:45.415Z,14.95
2023-09-06T01:35:11.750Z,14.94
2023-09-06T01:37:38.301Z,14.94
2023-09-06T01:40:14.957Z,14.92
2023-09-06T01:42:41.260Z,14.89
2023-09-06T01:45:07.484Z,14.87
2023-09-06T01:47:33.797Z,14.85
2023-09-06T01:50:00.089Z,14.86
2023-09-06T01:52:26.363Z,14.86
2023-09-06T01:54:52.624Z,14.86
2023-09-06T01:57:18.858Z,14.85
2023-09-06T01:59:45.151Z,14.86
2023-09-06T02:02:11.476Z,14.85
2023-09-06T02:04:38.826Z,14.85
2023-09-06T02:07:05.133Z,14.82
2023-09-06T02:09:32.488Z,14.80
2023-09-06T02:11:59.855Z,14.82
2023-09-06T02:14:26.100Z,14.81
2023-09-06T02:16:52.322Z,14.80
2023-09-06T02:19:20.294Z,14.81
2023-09-06T02:21:46.696Z,14.81
2023-09-06T02:24:13.319Z,14.81
2023-09-06T02:26:39.582Z,14.80
2023-09-06T02:29:05.930Z,14.78
2023-09-06T02:31:32.190Z,14.75
2023-09-06T02:33:58.578Z,14.74
2023-09-06T02:36:24.826Z,14.73
2023-09-06T02:38:51.112Z,14.72
2023-09-06T02:41:17.355Z,14.69
2023-09-06T02:43:43.580Z,14.67
2023-09-06T02:46:11.321Z,14.66
2023-09-06T02:48:38.993Z,14.64
2023-09-06T02:51:08.616Z,14.60
2023-09-06T02:53:34.902Z,14.57
2023-09-06T02:56:02.264Z,14.54
2023-09-06T02:58:28.989Z,14.52
2023-09-06T03:00:59.058Z,14.53
2023-09-06T03:03:29.617Z,14.52
2023-09-06T03:05:56.226Z,14.51
2023-09-06T03:08:25.843Z,14.49
2023-09-06T03:10:54.880Z,14.48
2023-09-06T03:13:21.237Z,14.47
2023-09-06T03:15:51.992Z,14.45
2023-09-06T03:18:19.532Z,14.43
2023-09-06T03:20:45.807Z,14.41
2023-09-06T03:23:18.654Z,14.43
2023-09-06T03:25:46.189Z,14.42
2023-09-06T03:28:12.492Z,14.40
2023-09-06T03:30:39.458Z,14.38
2023-09-06T03:33:06.034Z,14.37
2023-09-06T03:35:32.305Z,14.33
2023-09-06T03:37:59.500Z,14.29
2023-09-06T03:40:26.124Z,14.26
2023-09-06T03:42:52.365Z,14.23
2023-09-06T03:45:22.031Z,14.21
2023-09-06T03:47:48.450Z,14.21
2023-09-06T03:50:16.264Z,14.20
2023-09-06T03:52:43.844Z,14.19
2023-09-06T03:55:10.759Z,14.19
2023-09-06T03:57:37.669Z,14.19
2023-09-06T04:00:23.071Z,14.18
2023-09-06T04:02:50.618Z,14.16
2023-09-06T04:05:17.088Z,14.14
2023-09-06T04:07:43.869Z,14.12
2023-09-06T04:10:16.908Z,14.09
2023-09-06T04:12:43.256Z,14.08
2023-09-06T04:15:09.543Z,14.07
2023-09-06T04:17:35.838Z,14.05
2023-09-06T04:20:18.538Z,14.03
2023-09-06T04:22:46.093Z,14.03
2023-09-06T04:25:12.457Z,14.01
2023-09-06T04:27:40.086Z,14.00
2023-09-06T04:30:06.335Z,13.99
2023-09-06T04:32:32.610Z,13.99
2023-09-06T04:34:59.508Z,14.01
2023-09-06T04:37:28.980Z,14.03
2023-09-06T04:39:55.271Z,14.04
2023-09-06T04:42:21.528Z,14.05
2023-09-06T04:44:47.811Z,14.06
2023-09-06T04:47:14.823Z,14.08
2023-09-06T04:49:41.378Z,14.09
2023-09-06T04:52:08.592Z,14.11
2023-09-06T04:54:34.860Z,14.12
2023-09-06T04:57:01.159Z,14.17
2023-09-06T04:59:27.716Z,14.20
2023-09-06T05:01:54.023Z,14.22
2023-09-06T05:04:20.427Z,14.26
2023-09-06T05:06:46.853Z,14.29
2023-09-06T05:09:16.284Z,14.32
2023-09-06T05:11:42.531Z,14.34
2023-09-06T05:14:10.769Z,14.37
2023-09-06T05:16:37.163Z,14.43
2023-09-06T05:19:03.424Z,14.45
2023-09-06T05:21:29.979Z,14.48
2023-09-06T05:23:56.261Z,14.53
2023-09-06T05:26:22.498Z,14.57
2023-09-06T05:28:49.320Z,14.61
2023-09-06T05:31:15.599Z,14.68
2023-09-06T05:33:41.874Z,14.74
2023-09-06T05:36:09.538Z,14.79
2023-09-06T05:38:35.781Z,14.84
2023-09-06T05:41:02.928Z,14.90
2023-09-06T05:43:29.228Z,14.95
2023-09-06T05:45:55.500Z,15.00
2023-09-06T05:48:21.952Z,15.06
2023-09-06T05:50:48.235Z,15.15
2023-09-06T05:53:15.684Z,15.21
2023-09-06T05:55:42.433Z,15.26
2023-09-06T05:58:08.760Z,15.30
2023-09-06T06:00:37.256Z,15.35
2023-09-06T06:03:04.060Z,15.39
2023-09-06T06:05:30.470Z,15.45
2023-09-06T06:07:58.389Z,15.53
2023-09-06T06:10:24.706Z,15.59
2023-09-06T06:12:51.861Z,15.62
2023-09-06T06:15:18.119Z,15.65
2023-09-06T06:17:44.382Z,15.70
2023-09-06T06:20:11.599Z,15.74
2023-09-06T06:22:41.485Z,15.79
2023-09-06T06:25:08.085Z,15.88
2023-09-06T06:27:34.759Z,15.95
2023-09-06T06:30:01.367Z,15.99
2023-09-06T06:32:27.948Z,16.02
2023-09-06T06:34:55.705Z,16.07
2023-09-06T06:37:21.958Z,16.10
2023-09-06T06:39:49.591Z,16.13
2023-09-06T06:42:15.891Z,16.19
2023-09-06T06:44:42.140Z,16.27
2023-09-06T06:47:08.386Z,16.34
2023-09-06T06:49:34.698Z,16.38
2023-09-06T06:52:00.956Z,16.43
2023-09-06T06:54:28.380Z,16.50
2023-09-06T06:56:54.657Z,16.57
2023-09-06T06:59:21.101Z,16.63
2023-09-06T07:01:48.560Z,16.68
2023-09-06T07:04:14.994Z,16.75
2023-09-06T07:06:41.264Z,16.81
2023-09-06T07:09:07.537Z,16.84
2023-09-06T07:11:34.045Z,16.85
2023-09-06T07:14:00.473Z,16.89
2023-09-06T07:16:30.151Z,16.96
2023-09-06T07:18:58.555Z,17.02
2023-09-06T07:21:26.110Z,17.08
2023-09-06T07:23:52.563Z,17.16
2023-09-06T07:26:18.893Z,17.23
2023-09-06T07:28:45.842Z,17.27
2023-09-06T07:31:12.220Z,17.33
2023-09-06T07:33:39.301Z,17.37
2023-09-06T07:36:05.648Z,17.41
2023-09-06T07:38:32.303Z,17.44
2023-09-06T07:40:59.049Z,17.49
2023-09-06T07:43:25.477Z,17.53
2023-09-06T07:45:52.176Z,17.57
2023-09-06T07:48:18.549Z,17.61
2023-09-06T07:50:44.986Z,17.64
2023-09-06T07:53:11.300Z,17.68
2023-09-06T07:55:38.432Z,17.76
2023-09-06T07:58:04.719Z,17.82
2023-09-06T08:00:31.698Z,17.86
2023-09-06T08:02:57.972Z,17.93
2023-09-06T08:05:24.988Z,17.97
2023-09-06T08:07:51.223Z,18.03
2023-09-06T08:10:18.768Z,18.08
2023-09-06T08:12:45.014Z,18.14
2023-09-06T08:15:11.380Z,18.19
2023-09-06T08:17:38.308Z,18.25
2023-09-06T08:20:05.125Z,18.31
2023-09-06T08:22:43.982Z,18.35
2023-09-06T08:25:12.687Z,18.42
2023-09-06T08:27:38.920Z,18.52
2023-09-06T08:30:05.290Z,18.60
2023-09-06T08:32:31.797Z,18.68
2023-09-06T08:34:58.299Z,18.73
2023-09-06T08:37:24.514Z,18.81
2023-09-06T08:39:50.858Z,18.89
2023-09-06T08:42:17.240Z,18.97
2023-09-06T08:44:43.679Z,19.03
2023-09-06T08:47:09.952Z,19.09
2023-09-06T08:49:36.284Z,19.15
2023-09-06T08:52:03.815Z,19.19
2023-09-06T08:54:30.084Z,19.24
2023-09-06T08:56:56.478Z,19.30
2023-09-06T08:59:22.851Z,19.35
2023-09-06T09:01:49.164Z,19.41
2023-09-06T09:04:15.530Z,19.46
2023-09-06T09:06:41.901Z,19.54
2023-09-06T09:09:08.186Z,19.63
2023-09-06T09:11:34.777Z,19.72
2023-09-06T09:14:01.583Z,19.80
2023-09-06T09:16:29.635Z,19.90
2023-09-06T09:18:56.153Z,19.99
2023-09-06T09:21:22.657Z,20.07
2023-09-06T09:23:50.191Z,20.16
2023-09-06T09:26:16.875Z,20.24
2023-09-06T09:28:43.171Z,20.33
2023-09-06T09:31:09.961Z,20.44
2023-09-06T09:33:36.526Z,20.56
2023-09-06T09:36:03.063Z,20.67
2023-09-06T09:38:29.624Z,20.78
2023-09-06T09:40:56.235Z,20.89
2023-09-06T09:43:22.489Z,21.00
2023-09-06T09:45:49.239Z,21.14
2023-09-06T09:48:15.863Z,21.29
2023-09-06T09:50:42.447Z,21.43
2023-09-06T09:53:33.887Z,21.57
2023-09-06T09:55:55.942Z,21.73
2023-09-06T09:58:23.288Z,21.87
2023-09-06T10:00:52.599Z,22.00
2023-09-06T10:03:19.373Z,22.10
2023-09-06T10:05:46.078Z,22.19
2023-09-06T10:08:12.353Z,22.31
2023-09-06T10:10:38.607Z,22.42
2023-09-06T10:13:08.310Z,22.52
2023-09-06T10:15:34.921Z,22.59
2023-09-06T10:18:01.214Z,22.66
2023-09-06T10:20:27.522Z,22.74
2023-09-06T10:22:53.810Z,22.82
2023-09-06T10:25:20.236Z,22.92
2023-09-06T10:27:46.799Z,23.01
2023-09-06T10:30:18.000Z,23.10
2023-09-06T10:32:44.335Z,23.16
2023-09-06T10:35:10.643Z,23.23
2023-09-06T10:37:36.917Z,23.30
2023-09-06T10:40:03.234Z,23.35
2023-09-06T10:42:29.616Z,23.39
2023-09-06T10:44:55.918Z,23.44
2023-09-06T10:47:22.269Z,23.52
2023-09-06T10:49:48.502Z,23.58
2023-09-06T10:52:14.818Z,23.62
2023-09-06T10:54:41.195Z,23.64
2023-09-06T10:57:07.517Z,23.69
2023-09-06T10:59:33.867Z,23.78
2023-09-06T11:02:01.128Z,23.86
2023-09-06T11:04:27.677Z,23.92
2023-09-06T11:06:54.206Z,24.00
2023-09-06T11:09:20.561Z,24.09
2023-09-06T11:11:46.808Z,24.18
2023-09-06T11:14:13.064Z,24.25
2023-09-06T11:16:39.313Z,24.32
2023-09-06T11:19:06.548Z,24.37
2023-09-06T11:21:32.898Z,24.39
2023-09-06T11:23:59.192Z,24.45
2023-09-06T11:26:26.972Z,24.51
2023-09-06T11:28:54.352Z,24.56
2023-09-06T11:31:20.982Z,24.61
2023-09-06T11:33:49.075Z,24.67
2023-09-06T11:36:15.896Z,24.72
2023-09-06T11:38:44.043Z,24.77
2023-09-06T11:41:12.340Z,24.80
2023-09-06T11:43:43.489Z,24.85
2023-09-06T11:46:12.601Z,24.88
2023-09-06T11:48:40.130Z,24.88
2023-09-06T11:51:10.671Z,24.90
2023-09-06T11:53:37.499Z,24.92
2023-09-06T11:56:07.387Z,24.96
2023-09-06T11:58:34.964Z,24.99
2023-09-06T12:01:02.075Z,25.04
2023-09-06T12:03:31.364Z,25.04
2023-09-06T12:06:01.039Z,25.02
2023-09-06T12:08:28.547Z,25.01
2023-09-06T12:10:58.916Z,25.01
2023-09-06T12:13:25.221Z,25.04
2023-09-06T12:15:51.779Z,25.10
2023-09-06T12:18:18.769Z,25.15
2023-09-06T12:20:45.247Z,25.20
2023-09-06T12:23:11.468Z,25.22
2023-09-06T12:25:37.773Z,25.22
2023-09-06T12:28:04.018Z,25.24
2023-09-06T12:30:30.694Z,25.23
2023-09-06T12:32:57.384Z,25.16
2023-09-06T12:35:23.779Z,25.18
2023-09-06T12:37:50.063Z,25.23
2023-09-06T12:40:16.471Z,25.28
2023-09-06T12:42:43.366Z,25.31
2023-09-06T12:45:09.742Z,25.33
2023-09-06T12:47:36.187Z,25.36
2023-09-06T12:50:04.623Z,25.37
2023-09-06T12:52:30.902Z,25.39
2023-09-06T12:54:57.684Z,25.42
2023-09-06T12:57:24.025Z,25.41
2023-09-06T12:59:50.321Z,25.40
2023-09-06T13:02:16.614Z,25.43
2023-09-06T13:04:43.038Z,25.41
2023-09-06T13:07:09.454Z,25.42
2023-09-06T13:09:35.715Z,25.43
2023-09-06T13:12:01.996Z,25.46
2023-09-06T13:14:30.069Z,25.44
2023-09-06T13:16:56.314Z,25.43
2023-09-06T13:19:22.585Z,25.41
2023-09-06T13:21:48.853Z,25.45
2023-09-06T13:24:16.921Z,25.50
2023-09-06T13:26:44.725Z,25.53
2023-09-06T13:29:11.124Z,25.54
2023-09-06T13:31:37.485Z,25.54
2023-09-06T13:34:03.971Z,25.54
2023-09-06T13:36:34.025Z,25.52
2023-09-06T13:39:00.363Z,25.53
2023-09-06T13:41:26.621Z,25.52
2023-09-06T13:43:52.889Z,25.51
2023-09-06T13:46:19.250Z,25.51
2023-09-06T13:48:45.549Z,25.52
2023-09-06T13:51:11.899Z,25.53
2023-09-06T13:53:38.166Z,25.56
2023-09-06T13:56:04.519Z,25.58
2023-09-06T13:58:32.656Z,25.58
2023-09-06T14:00:59.505Z,25.58
2023-09-06T14:03:26.654Z,25.58
2023-09-06T14:05:53.142Z,25.60
2023-09-06T14:08:19.661Z,25.58
2023-09-06T14:10:45.942Z,25.56
2023-09-06T14:13:12.217Z,25.58
2023-09-06T14:15:38.501Z,25.59
2023-09-06T14:18:06.783Z,25.59
2023-09-06T14:20:35.112Z,25.57
2023-09-06T14:23:01.426Z,25.56
2023-09-06T14:25:27.700Z,25.56
2023-09-06T14:27:53.966Z,25.57
2023-09-06T14:30:20.238Z,25.58
2023-09-06T14:32:46.654Z,25.58
2023-09-06T14:35:13.052Z,25.59
2023-09-06T14:37:39.327Z,25.62
2023-09-06T14:40:05.909Z,25.69
2023-09-06T14:42:33.137Z,25.76
2023-09-06T14:44:59.445Z,25.84
2023-09-06T14:47:25.798Z,25.94
2023-09-06T14:49:52.637Z,26.06
2023-09-06T14:52:19.116Z,26.16
2023-09-06T14:54:45.350Z,26.24
2023-09-06T14:57:11.603Z,26.28
2023-09-06T14:59:39.106Z,26.37
2023-09-06T15:02:05.411Z,26.52
2023-09-06T15:04:32.273Z,26.68
2023-09-06T15:06:59.666Z,26.86
2023-09-06T15:09:26.710Z,27.03
2023-09-06T15:11:53.236Z,27.04
2023-09-06T15:14:20.136Z,26.95
2023-09-06T15:16:46.504Z,26.79
2023-09-06T15:19:12.907Z,26.64
2023-09-06T15:21:43.677Z,26.54
2023-09-06T15:24:10.091Z,26.46
2023-09-06T15:26:37.234Z,26.34
2023-09-06T15:29:03.488Z,26.21
2023-09-06T15:31:31.349Z,26.12
2023-09-06T15:33:57.881Z,26.03
2023-09-06T15:36:30.576Z,25.93
2023-09-06T15:38:56.941Z,25.85
2023-09-06T15:41:24.132Z,25.77
2023-09-06T15:43:50.399Z,25.68
2023-09-06T15:46:16.747Z,25.58
2023-09-06T15:48:43.230Z,25.50
2023-09-06T15:51:09.673Z,25.48
2023-09-06T15:53:36.314Z,25.43
2023-09-06T15:56:02.850Z,25.33
2023-09-06T15:58:29.346Z,25.25
2023-09-06T16:00:55.991Z,25.18
2023-09-06T16:03:22.510Z,25.10
2023-09-06T16:05:49.312Z,25.01
2023-09-06T16:08:16.065Z,24.94
2023-09-06T16:10:42.329Z,24.87
2023-09-06T16:13:08.576Z,24.80
2023-09-06T16:15:34.846Z,24.74
2023-09-06T16:18:01.275Z,24.65
2023-09-06T16:20:28.018Z,24.58
2023-09-06T16:22:54.276Z,24.51
2023-09-06T16:25:20.618Z,24.45
2023-09-06T16:27:46.975Z,24.39
2023-09-06T16:30:14.254Z,24.32
2023-09-06T16:32:40.819Z,24.25
2023-09-06T16:35:10.668Z,24.15
2023-09-06T16:37:39.143Z,24.04
2023-09-06T16:40:09.826Z,23.93
2023-09-06T16:42:36.317Z,23.81
2023-09-06T16:45:02.749Z,23.70
2023-09-06T16:47:29.175Z,23.58
2023-09-06T16:49:55.512Z,23.48
2023-09-06T16:52:22.505Z,23.37
2023-09-06T16:54:48.986Z,23.25
2023-09-06T16:57:17.069Z,23.16
2023-09-06T16:59:44.419Z,23.03
2023-09-06T17:02:10.984Z,22.93
2023-09-06T17:04:37.483Z,22.83
2023-09-06T17:07:03.841Z,22.72
2023-09-06T17:09:30.145Z,22.63
2023-09-06T17:11:56.586Z,22.51
2023-09-06T17:14:24.448Z,22.41
2023-09-06T17:16:50.955Z,22.31
2023-09-06T17:19:17.515Z,22.20
2023-09-06T17:21:43.887Z,22.11
2023-09-06T17:24:10.376Z,22.01
2023-09-06T17:26:37.360Z,21.96
2023-09-06T17:29:07.241Z,21.90
2023-09-06T17:31:34.184Z,21.83
2023-09-06T17:34:00.725Z,21.76
2023-09-06T17:36:27.158Z,21.69
2023-09-06T17:38:54.820Z,21.63
2023-09-06T17:41:21.305Z,21.57
2023-09-06T17:43:47.787Z,21.51
2023-09-06T17:46:14.476Z,21.44
2023-09-06T17:48:40.938Z,21.36
2023-09-06T17:51:13.691Z,21.30
2023-09-06T17:53:40.786Z,21.27
2023-09-06T17:56:13.659Z,21.21
2023-09-06T17:58:40.260Z,21.15
2023-09-06T18:01:07.664Z,21.05
2023-09-06T18:03:34.210Z,20.98
2023-09-06T18:06:01.297Z,20.93
2023-09-06T18:08:28.264Z,20.89
2023-09-06T18:10:54.925Z,20.84
2023-09-06T18:13:21.230Z,20.79
2023-09-06T18:15:49.593Z,20.72
2023-09-06T18:18:16.698Z,20.65
2023-09-06T18:20:43.309Z,20.59
2023-09-06T18:23:09.642Z,20.53
2023-09-06T18:25:36.005Z,20.47
2023-09-06T18:28:02.268Z,20.41
2023-09-06T18:30:28.709Z,20.39
2023-09-06T18:32:54.980Z,20.36
2023-09-06T18:35:21.727Z,20.32
2023-09-06T18:37:49.509Z,20.28
2023-09-06T18:40:16.033Z,20.24
2023-09-06T18:42:42.365Z,20.20
2023-09-06T18:45:11.061Z,20.16
2023-09-06T18:47:37.497Z,20.10
2023-09-06T18:50:07.693Z,20.04
2023-09-06T18:52:34.590Z,20.00
2023-09-06T18:55:00.912Z,19.95
2023-09-06T18:57:27.195Z,19.90
2023-09-06T18:59:54.194Z,19.89
2023-09-06T19:02:23.647Z,19.84
2023-09-06T19:04:50.936Z,19.80
2023-09-06T19:07:17.195Z,19.75
2023-09-06T19:09:46.041Z,19.71
2023-09-06T19:12:15.853Z,19.67
2023-09-06T19:14:42.401Z,19.62
2023-09-06T19:17:08.696Z,19.59
2023-09-06T19:19:38.928Z,19.55
2023-09-06T19:22:05.201Z,19.55
2023-09-06T19:24:33.037Z,19.53
2023-09-06T19:26:59.315Z,19.51
2023-09-06T19:29:26.964Z,19.49
2023-09-06T19:31:53.308Z,19.48
2023-09-06T19:34:19.543Z,19.45
2023-09-06T19:36:45.764Z,19.40
2023-09-06T19:39:12.022Z,19.34
2023-09-06T19:41:38.281Z,19.29
2023-09-06T19:44:04.552Z,19.27
2023-09-06T19:46:30.962Z,19.26
2023-09-06T19:49:05.568Z,19.24
2023-09-06T19:51:33.000Z,19.22
2023-09-06T19:53:59.433Z,19.19
2023-09-06T19:56:25.715Z,19.17
2023-09-06T19:58:52.059Z,19.13
2023-09-06T20:01:18.420Z,19.08
2023-09-06T20:03:48.004Z,19.04
2023-09-06T20:06:14.438Z,19.01
2023-09-06T20:08:40.803Z,18.98
2023-09-06T20:11:07.150Z,18.95
2023-09-06T20:13:33.407Z,18.92
2023-09-06T20:16:01.878Z,18.89
2023-09-06T20:18:28.329Z,18.87
2023-09-06T20:20:54.843Z,18.84
2023-09-06T20:23:21.316Z,18.82
2023-09-06T20:25:47.655Z,18.79
2023-09-06T20:28:13.881Z,18.76
2023-09-06T20:30:40.217Z,18.77
2023-09-06T20:33:06.608Z,18.75
2023-09-06T20:35:33.412Z,18.73
2023-09-06T20:37:59.836Z,18.72
2023-09-06T20:40:26.692Z,18.70
2023-09-06T20:42:53.116Z,18.68
2023-09-06T20:45:20.365Z,18.66
2023-09-06T20:47:46.985Z,18.60
2023-09-06T20:50:18.968Z,18.56
2023-09-06T20:52:45.401Z,18.56
2023-09-06T20:55:11.727Z,18.53
2023-09-06T20:57:38.189Z,18.49
2023-09-06T21:00:05.938Z,18.46
2023-09-06T21:02:32.361Z,18.43
2023-09-06T21:04:59.146Z,18.41
2023-09-06T21:07:25.738Z,18.39
2023-09-06T21:09:52.994Z,18.35
2023-09-06T21:12:19.354Z,18.32
2023-09-06T21:14:45.893Z,18.31
2023-09-06T21:17:12.293Z,18.29
2023-09-06T21:19:38.735Z,18.27
2023-09-06T21:22:05.056Z,18.25
2023-09-06T21:24:31.794Z,18.23
2023-09-06T21:26:58.142Z,18.20
2023-09-06T21:29:28.640Z,18.17
2023-09-06T21:31:56.624Z,18.14
2023-09-06T21:34:23.174Z,18.14
2023-09-06T21:36:49.745Z,18.10
2023-09-06T21:39:16.236Z,18.07
2023-09-06T21:41:42.559Z,18.05
2023-09-06T21:44:08.889Z,18.03
2023-09-06T21:46:35.396Z,18.00
2023-09-06T21:49:01.870Z,17.97
2023-09-06T21:51:28.293Z,17.93
2023-09-06T21:53:54.763Z,17.92
2023-09-06T21:56:21.424Z,17.89
2023-09-06T21:58:47.917Z,17.85
2023-09-06T22:01:14.247Z,17.83
2023-09-06T22:03:40.927Z,17.79
2023-09-06T22:06:07.540Z,17.75
2023-09-06T22:08:34.697Z,17.71
2023-09-06T22:11:00.990Z,17.68
2023-09-06T22:13:27.524Z,17.66
2023-09-06T22:15:55.205Z,17.67
2023-09-06T22:18:21.723Z,17.68
2023-09-06T22:20:48.255Z,17.66
2023-09-06T22:23:16.530Z,17.65
2023-09-06T22:25:42.801Z,17.63
2023-09-06T22:28:09.598Z,17.58
2023-09-06T22:30:36.236Z,17.54
2023-09-06T22:33:02.812Z,17.52
2023-09-06T22:35:29.110Z,17.48
2023-09-06T22:37:56.050Z,17.49
2023-09-06T22:40:22.852Z,17.50
2023-09-06T22:42:49.578Z,17.48
2023-09-06T22:45:16.276Z,17.46
2023-09-06T22:47:42.737Z,17.45
2023-09-06T22:50:15.176Z,17.43
2023-09-06T22:52:44.856Z,17.40
2023-09-06T22:55:13.067Z,17.34
2023-09-06T22:57:40.122Z,17.28
2023-09-06T23:00:08.183Z,17.28
2023-09-06T23:02:34.794Z,17.28
2023-09-06T23:05:01.668Z,17.27
2023-09-06T23:07:28.652Z,17.26
2023-09-06T23:09:55.044Z,17.24
2023-09-06T23:12:22.606Z,17.22
2023-09-06T23:14:49.861Z,17.19
2023-09-06T23:17:18.830Z,17.16
2023-09-06T23:19:47.844Z,17.12
2023-09-06T23:22:14.214Z,17.11
2023-09-06T23:24:44.297Z,17.08
2023-09-06T23:27:18.304Z,17.05
2023-09-06T23:29:48.029Z,17.02
2023-09-06T23:32:17.428Z,16.99
2023-09-06T23:34:47.988Z,16.96
2023-09-06T23:37:14.449Z,16.93
2023-09-06T23:39:43.900Z,16.88
2023-09-06T23:42:10.872Z,16.87
2023-09-06T23:44:38.481Z,16.86
2023-09-06T23:47:06.980Z,16.84
2023-09-06T23:49:35.181Z,16.83
2023-09-06T23:52:01.882Z,16.82
2023-09-06T23:54:40.820Z,16.79
2023-09-06T23:57:11.478Z,16.75
2023-09-06T23:59:37.692Z,16.70
